createdAt,value
2019-02-15T00:02:27.985Z,99.90
2019-02-15T00:04:58.291Z,99.90
2019-02-15T00:07:28.471Z,99.90
2019-02-15T00:09:58.672Z,99.90
2019-02-15T00:12:28.956Z,99.90
2019-02-15T00:14:59.165Z,99.90
2019-02-15T00:17:52.941Z,99.90
2019-02-15T00:20:30.521Z,99.90
2019-02-15T00:23:01.051Z,99.90
2019-02-15T00:25:31.455Z,99.90
2019-02-15T00:28:01.706Z,99.90
2019-02-15T00:30:32.107Z,99.90
2019-02-15T00:33:02.296Z,99.90
2019-02-15T00:35:32.526Z,99.90
2019-02-15T00:38:02.692Z,99.90
2019-02-15T00:40:32.896Z,99.90
2019-02-15T00:43:03.073Z,99.90
2019-02-15T00:45:35.017Z,99.90
2019-02-15T00:48:06.847Z,99.90
2019-02-15T00:50:56.776Z,99.90
2019-02-15T00:53:28.589Z,99.90
2019-02-15T00:56:00.431Z,99.90
2019-02-15T00:58:37.816Z,99.90
2019-02-15T01:01:12.359Z,99.90
2019-02-15T01:03:44.481Z,99.90
2019-02-15T01:06:32.316Z,99.90
2019-02-15T01:09:04.229Z,99.90
2019-02-15T01:11:36.067Z,99.90
2019-02-15T01:14:06.341Z,99.90
2019-02-15T01:16:36.724Z,99.90
2019-02-15T01:19:06.960Z,99.90
2019-02-15T01:21:37.267Z,99.90
2019-02-15T01:24:07.436Z,99.90
2019-02-15T01:26:45.408Z,99.90
2019-02-15T01:29:35.073Z,99.90
2019-02-15T01:32:06.955Z,99.90
2019-02-15T01:34:38.763Z,99.90
2019-02-15T01:37:16.356Z,99.90
2019-02-15T01:40:00.661Z,99.90
2019-02-15T01:42:35.616Z,99.90
2019-02-15T01:45:11.048Z,99.90
2019-02-15T01:47:41.611Z,99.90
2019-02-15T01:50:11.792Z,99.90
2019-02-15T01:52:42.092Z,99.90
2019-02-15T01:55:12.381Z,99.90
2019-02-15T01:57:42.574Z,99.90
2019-02-15T02:00:14.512Z,99.90
2019-02-15T02:02:44.709Z,99.90
2019-02-15T02:05:14.952Z,99.90
2019-02-15T02:07:45.137Z,99.90
2019-02-15T02:10:15.343Z,99.90
2019-02-15T02:12:45.613Z,99.90
2019-02-15T02:15:15.872Z,99.90
2019-02-15T02:17:46.076Z,99.90
2019-02-15T02:20:16.244Z,99.90
2019-02-15T02:22:46.547Z,99.90
2019-02-15T02:25:16.724Z,99.90
2019-02-15T02:27:46.916Z,99.90
2019-02-15T02:30:17.165Z,99.90
2019-02-15T02:32:47.347Z,99.90
2019-02-15T02:35:17.519Z,99.90
2019-02-15T02:37:47.723Z,99.90
2019-02-15T02:40:17.895Z,99.90
2019-02-15T02:42:48.092Z,99.90
2019-02-15T02:45:18.376Z,99.90
2019-02-15T02:47:49.384Z,99.90
2019-02-15T02:50:19.651Z,99.90
2019-02-15T02:52:49.835Z,99.90
2019-02-15T02:55:20.115Z,99.90
2019-02-15T02:57:50.329Z,99.90
2019-02-15T03:00:20.685Z,99.90
2019-02-15T03:02:50.881Z,99.90
2019-02-15T03:05:22.460Z,99.90
2019-02-15T03:07:52.766Z,99.90
2019-02-15T03:10:23.040Z,99.90
2019-02-15T03:12:53.341Z,99.90
2019-02-15T03:15:23.611Z,99.90
2019-02-15T03:17:53.805Z,99.90
2019-02-15T03:20:31.153Z,99.90
2019-02-15T03:22:55.809Z,99.90
2019-02-15T03:25:26.084Z,99.90
2019-02-15T03:27:56.375Z,99.90
2019-02-15T03:30:26.546Z,99.90
2019-02-15T03:32:56.726Z,99.90
2019-02-15T03:35:26.916Z,99.90
2019-02-15T03:37:58.753Z,99.90
2019-02-15T03:40:33.335Z,99.90
2019-02-15T03:43:04.224Z,99.90
2019-02-15T03:45:34.503Z,99.90
2019-02-15T03:48:05.029Z,99.90
2019-02-15T03:50:35.227Z,99.90
2019-02-15T03:53:05.369Z,99.90
2019-02-15T03:55:35.643Z,99.90
2019-02-15T03:58:05.867Z,99.90
2019-02-15T04:00:36.317Z,99.90
2019-02-15T04:03:06.468Z,99.90
2019-02-15T04:05:37.083Z,99.90
2019-02-15T04:08:07.289Z,99.90
2019-02-15T04:10:37.903Z,99.90
2019-02-15T04:13:08.252Z,99.90
2019-02-15T04:15:38.591Z,99.90
2019-02-15T04:18:08.857Z,99.90
2019-02-15T04:20:39.046Z,99.90
2019-02-15T04:23:09.193Z,99.90
2019-02-15T04:25:39.572Z,99.90
2019-02-15T04:28:10.023Z,99.90
2019-02-15T04:30:40.215Z,99.90
2019-02-15T04:33:10.376Z,99.90
2019-02-15T04:35:40.586Z,99.90
2019-02-15T04:38:10.729Z,99.90
2019-02-15T04:40:40.902Z,99.90
2019-02-15T04:43:11.172Z,99.90
2019-02-15T04:45:41.353Z,99.90
2019-02-15T04:48:11.625Z,99.90
2019-02-15T04:50:41.816Z,99.90
2019-02-15T04:53:11.984Z,99.90
2019-02-15T04:55:42.167Z,99.90
2019-02-15T04:58:12.316Z,99.90
2019-02-15T05:00:42.597Z,99.90
2019-02-15T05:03:12.852Z,99.90
2019-02-15T05:05:43.124Z,99.90
2019-02-15T05:08:13.381Z,99.90
2019-02-15T05:10:43.551Z,99.90
2019-02-15T05:13:13.731Z,99.90
2019-02-15T05:15:45.467Z,99.90
2019-02-15T05:18:15.908Z,99.90
2019-02-15T05:20:46.194Z,99.90
2019-02-15T05:23:16.453Z,99.90
2019-02-15T05:25:46.623Z,99.90
2019-02-15T05:28:16.788Z,99.90
2019-02-15T05:30:47.058Z,99.90
2019-02-15T05:33:17.229Z,99.90
2019-02-15T05:35:47.559Z,99.90
2019-02-15T05:38:17.942Z,99.90
2019-02-15T05:40:48.219Z,99.90
2019-02-15T05:43:18.384Z,99.90
2019-02-15T05:45:48.676Z,99.90
2019-02-15T05:48:18.838Z,99.90
2019-02-15T05:50:49.193Z,99.90
2019-02-15T05:53:19.565Z,99.90
2019-02-15T05:55:49.735Z,99.90
2019-02-15T05:58:19.897Z,99.90
2019-02-15T06:00:50.079Z,99.90
2019-02-15T06:03:20.234Z,99.90
2019-02-15T06:05:50.403Z,99.90
2019-02-15T06:08:21.064Z,99.90
2019-02-15T06:11:07.402Z,99.90
2019-02-15T06:13:32.852Z,99.90
2019-02-15T06:16:05.164Z,99.90
2019-02-15T06:18:35.289Z,99.90
2019-02-15T06:21:05.468Z,99.90
2019-02-15T06:23:35.627Z,99.90
2019-02-15T06:26:06.045Z,99.90
2019-02-15T06:28:36.411Z,99.90
2019-02-15T06:31:06.817Z,99.90
2019-02-15T06:33:36.959Z,99.90
2019-02-15T06:36:07.257Z,99.90
2019-02-15T06:38:37.425Z,99.90
2019-02-15T06:41:07.610Z,99.90
2019-02-15T06:43:37.906Z,99.90
2019-02-15T06:46:08.057Z,99.90
2019-02-15T06:48:38.935Z,99.90
2019-02-15T06:51:09.212Z,99.90
2019-02-15T06:53:39.404Z,99.90
2019-02-15T06:56:09.584Z,99.90
2019-02-15T06:58:45.707Z,99.90
2019-02-15T07:01:24.711Z,99.90
2019-02-15T07:04:14.534Z,99.90
2019-02-15T07:06:44.816Z,99.90
2019-02-15T07:09:15.325Z,99.90
2019-02-15T07:11:45.566Z,99.90
2019-02-15T07:14:15.815Z,99.90
2019-02-15T07:16:46.012Z,99.90
2019-02-15T07:19:16.256Z,99.90
2019-02-15T07:21:46.450Z,99.90
2019-02-15T07:24:16.914Z,99.90
2019-02-15T07:26:47.087Z,99.90
2019-02-15T07:29:17.251Z,99.90
2019-02-15T07:31:47.417Z,99.90
2019-02-15T07:34:17.692Z,99.90
2019-02-15T07:36:48.393Z,99.90
2019-02-15T07:39:18.544Z,99.90
2019-02-15T07:41:48.704Z,99.90
2019-02-15T07:44:18.875Z,99.90
2019-02-15T07:46:49.124Z,99.90
2019-02-15T07:49:26.597Z,99.90
2019-02-15T07:51:51.095Z,99.90
2019-02-15T07:54:21.365Z,99.90
2019-02-15T07:56:51.535Z,99.90
2019-02-15T07:59:21.714Z,99.90
2019-02-15T08:01:51.859Z,99.90
2019-02-15T08:04:22.069Z,99.90
2019-02-15T08:06:52.224Z,99.90
2019-02-15T08:09:22.520Z,99.90
2019-02-15T08:11:52.689Z,99.60
2019-02-15T08:14:22.865Z,97.10
2019-02-15T08:16:53.033Z,92.40
2019-02-15T08:19:23.419Z,92.20
2019-02-15T08:21:53.708Z,90.60
2019-02-15T08:24:23.909Z,87.50
2019-02-15T08:26:54.154Z,89.30
2019-02-15T08:29:24.329Z,85.20
2019-02-15T08:31:54.595Z,84.60
2019-02-15T08:34:24.876Z,83.20
2019-02-15T08:36:55.238Z,78.20
2019-02-15T08:39:25.425Z,80.00
2019-02-15T08:42:01.721Z,77.80
2019-02-15T08:44:27.496Z,75.30
2019-02-15T08:46:57.665Z,74.20
2019-02-15T08:49:27.852Z,71.40
2019-02-15T08:51:58.603Z,69.90
2019-02-15T08:54:28.794Z,69.20
2019-02-15T08:56:58.961Z,69.90
2019-02-15T08:59:29.151Z,68.30
2019-02-15T09:02:03.712Z,67.20
2019-02-15T09:04:33.905Z,66.50
2019-02-15T09:07:04.073Z,66.20
2019-02-15T09:09:34.359Z,66.50
2019-02-15T09:12:04.610Z,65.90
2019-02-15T09:14:34.919Z,67.80
2019-02-15T09:17:05.081Z,65.30
2019-02-15T09:19:35.474Z,65.60
2019-02-15T09:22:05.771Z,65.40
2019-02-15T09:24:35.922Z,67.10
2019-02-15T09:27:07.739Z,66.80
2019-02-15T09:29:37.916Z,66.60
2019-02-15T09:32:08.084Z,66.70
2019-02-15T09:34:38.271Z,66.50
2019-02-15T09:37:08.440Z,66.10
2019-02-15T09:39:39.589Z,66.10
2019-02-15T09:42:09.786Z,64.30
2019-02-15T09:44:39.974Z,64.80
2019-02-15T09:47:10.142Z,65.40
2019-02-15T09:49:42.613Z,66.90
2019-02-15T09:52:12.491Z,65.30
2019-02-15T09:54:42.795Z,65.70
2019-02-15T09:57:13.572Z,65.70
2019-02-15T09:59:43.748Z,66.30
2019-02-15T10:02:13.909Z,66.60
2019-02-15T10:04:44.100Z,66.00
2019-02-15T10:07:14.248Z,65.70
2019-02-15T10:09:44.609Z,65.30
2019-02-15T10:12:14.874Z,66.70
2019-02-15T10:14:45.167Z,65.60
2019-02-15T10:17:15.325Z,66.80
2019-02-15T10:19:45.516Z,68.20
2019-02-15T10:22:15.671Z,69.60
2019-02-15T10:24:45.861Z,70.80
2019-02-15T10:27:16.042Z,70.40
2019-02-15T10:29:46.290Z,70.70
2019-02-15T10:32:16.390Z,71.00
2019-02-15T10:34:46.576Z,71.30
2019-02-15T10:37:16.731Z,70.90
2019-02-15T10:39:46.929Z,70.80
2019-02-15T10:42:17.167Z,69.60
2019-02-15T10:44:47.430Z,67.70
2019-02-15T10:47:24.666Z,68.90
2019-02-15T10:49:49.521Z,70.00
2019-02-15T10:52:19.689Z,68.80
2019-02-15T10:54:49.871Z,68.90
2019-02-15T10:57:20.035Z,67.20
2019-02-15T10:59:50.221Z,67.70
2019-02-15T11:02:20.386Z,65.40
2019-02-15T11:04:50.593Z,66.00
2019-02-15T11:07:20.853Z,65.90
2019-02-15T11:09:51.035Z,64.10
2019-02-15T11:12:21.193Z,65.10
2019-02-15T11:14:51.377Z,65.80
2019-02-15T11:17:21.574Z,64.70
2019-02-15T11:19:51.741Z,64.90
2019-02-15T11:22:22.001Z,64.00
2019-02-15T11:24:52.172Z,64.70
2019-02-15T11:27:22.359Z,65.60
2019-02-15T11:29:53.420Z,63.90
2019-02-15T11:32:23.729Z,64.90
2019-02-15T11:34:53.891Z,64.70
2019-02-15T11:37:24.085Z,62.40
2019-02-15T11:39:54.253Z,62.60
2019-02-15T11:42:24.548Z,65.00
2019-02-15T11:44:54.711Z,62.90
2019-02-15T11:47:24.903Z,64.70
2019-02-15T11:49:55.080Z,63.20
2019-02-15T11:52:25.300Z,64.70
2019-02-15T11:54:55.528Z,64.90
2019-02-15T11:57:25.810Z,63.70
2019-02-15T11:59:56.104Z,63.30
2019-02-15T12:02:26.294Z,63.40
2019-02-15T12:04:56.546Z,61.70
2019-02-15T12:07:26.741Z,63.00
2019-02-15T12:09:56.913Z,62.40
2019-02-15T12:12:27.177Z,63.80
2019-02-15T12:14:58.857Z,62.50
2019-02-15T12:17:29.120Z,61.30
2019-02-15T12:19:59.492Z,59.70
2019-02-15T12:22:31.721Z,58.70
2019-02-15T12:25:01.998Z,59.10
2019-02-15T12:27:33.999Z,58.10
2019-02-15T12:30:05.968Z,58.50
2019-02-15T12:32:36.182Z,58.80
2019-02-15T12:35:07.681Z,58.70
2019-02-15T12:37:38.510Z,58.20
2019-02-15T12:40:10.402Z,58.60
2019-02-15T12:42:40.798Z,57.70
2019-02-15T12:45:16.595Z,57.60
2019-02-15T12:47:46.976Z,57.90
2019-02-15T12:50:18.878Z,55.80
2019-02-15T12:52:49.231Z,56.50
2019-02-15T12:55:19.528Z,57.80
2019-02-15T12:57:49.771Z,57.80
2019-02-15T13:00:20.111Z,57.30
2019-02-15T13:02:50.428Z,56.80
2019-02-15T13:05:20.581Z,56.60
2019-02-15T13:07:50.873Z,56.80
2019-02-15T13:10:22.767Z,57.50
2019-02-15T13:12:53.733Z,57.00
2019-02-15T13:15:23.897Z,56.80
2019-02-15T13:17:54.253Z,56.40
2019-02-15T13:20:24.510Z,57.70
2019-02-15T13:22:54.905Z,56.90
2019-02-15T13:25:25.349Z,53.70
2019-02-15T13:27:55.621Z,54.60
2019-02-15T13:30:25.960Z,55.30
2019-02-15T13:32:56.154Z,56.10
2019-02-15T13:35:26.379Z,54.90
2019-02-15T13:37:56.581Z,55.60
2019-02-15T13:40:26.745Z,55.20
2019-02-15T13:42:57.008Z,53.20
2019-02-15T13:45:29.398Z,53.40
2019-02-15T13:47:59.102Z,54.20
2019-02-15T13:50:29.453Z,53.20
2019-02-15T13:52:59.739Z,52.50
2019-02-15T13:55:29.918Z,53.50
2019-02-15T13:58:00.222Z,52.50
2019-02-15T14:00:30.393Z,52.90
2019-02-15T14:03:00.672Z,51.90
2019-02-15T14:05:30.827Z,53.50
2019-02-15T14:08:01.029Z,52.00
2019-02-15T14:10:31.184Z,52.10
2019-02-15T14:13:01.386Z,51.30
2019-02-15T14:15:31.661Z,53.20
2019-02-15T14:18:02.025Z,53.10
2019-02-15T14:20:32.946Z,52.60
2019-02-15T14:23:03.331Z,51.70
2019-02-15T14:25:33.516Z,51.60
2019-02-15T14:28:03.726Z,52.80
2019-02-15T14:30:34.024Z,52.80
2019-02-15T14:33:04.272Z,54.60
2019-02-15T14:35:34.469Z,52.60
2019-02-15T14:38:04.713Z,53.10
2019-02-15T14:40:34.914Z,51.60
2019-02-15T14:43:05.212Z,53.10
2019-02-15T14:45:35.400Z,52.40
2019-02-15T14:48:05.781Z,51.90
2019-02-15T14:50:36.031Z,51.80
2019-02-15T14:53:06.235Z,50.80
2019-02-15T14:55:36.465Z,51.50
2019-02-15T14:58:06.673Z,50.40
2019-02-15T15:00:36.840Z,50.40
2019-02-15T15:03:07.139Z,50.50
2019-02-15T15:05:37.323Z,50.90
2019-02-15T15:08:07.537Z,50.20
2019-02-15T15:10:37.731Z,49.90
2019-02-15T15:13:07.909Z,50.60
2019-02-15T15:15:38.776Z,48.60
2019-02-15T15:18:13.035Z,49.40
2019-02-15T15:20:40.929Z,49.70
2019-02-15T15:23:11.297Z,50.30
2019-02-15T15:25:41.493Z,50.40
2019-02-15T15:28:11.671Z,51.70
2019-02-15T15:30:41.855Z,52.20
2019-02-15T15:33:12.096Z,50.90
2019-02-15T15:35:42.464Z,49.10
2019-02-15T15:38:14.549Z,49.50
2019-02-15T15:40:44.745Z,50.00
2019-02-15T15:43:15.020Z,51.70
2019-02-15T15:45:45.208Z,52.10
2019-02-15T15:48:22.546Z,51.00
2019-02-15T15:50:47.692Z,51.90
2019-02-15T15:53:18.059Z,52.10
2019-02-15T15:55:48.376Z,52.40
2019-02-15T15:58:18.491Z,51.60
2019-02-15T16:00:48.716Z,51.00
2019-02-15T16:03:19.077Z,51.00
2019-02-15T16:05:49.259Z,51.20
2019-02-15T16:08:19.627Z,51.20
2019-02-15T16:10:49.825Z,51.80
2019-02-15T16:13:19.998Z,52.40
2019-02-15T16:15:50.269Z,52.30
2019-02-15T16:18:20.452Z,52.40
2019-02-15T16:20:51.172Z,52.90
2019-02-15T16:23:21.329Z,52.90
2019-02-15T16:25:51.529Z,53.90
2019-02-15T16:28:21.782Z,53.80
2019-02-15T16:30:52.000Z,53.60
2019-02-15T16:33:22.173Z,53.20
2019-02-15T16:35:52.475Z,53.50
2019-02-15T16:38:22.639Z,54.30
2019-02-15T16:40:52.833Z,54.70
2019-02-15T16:43:23.105Z,55.30
2019-02-15T16:45:53.371Z,55.00
2019-02-15T16:48:23.641Z,55.40
2019-02-15T16:50:53.930Z,55.80
2019-02-15T16:53:24.112Z,56.10
2019-02-15T16:55:54.301Z,56.30
2019-02-15T16:58:24.546Z,56.90
2019-02-15T17:00:54.909Z,57.30
2019-02-15T17:03:25.072Z,57.70
2019-02-15T17:05:55.397Z,57.90
2019-02-15T17:08:25.683Z,57.70
2019-02-15T17:10:56.021Z,58.00
2019-02-15T17:13:26.509Z,58.40
2019-02-15T17:15:56.746Z,58.80
2019-02-15T17:18:26.942Z,59.20
2019-02-15T17:20:59.109Z,59.20
2019-02-15T17:23:30.775Z,59.50
2019-02-15T17:26:01.117Z,60.20
2019-02-15T17:28:31.301Z,60.40
2019-02-15T17:31:01.476Z,60.50
2019-02-15T17:33:31.637Z,61.00
2019-02-15T17:36:02.153Z,61.50
2019-02-15T17:38:32.428Z,62.00
2019-02-15T17:41:03.018Z,62.50
2019-02-15T17:43:33.181Z,62.80
2019-02-15T17:46:03.426Z,63.60
2019-02-15T17:48:34.816Z,64.30
2019-02-15T17:51:05.207Z,64.90
2019-02-15T17:53:35.878Z,65.60
2019-02-15T17:56:06.460Z,66.00
2019-02-15T17:58:36.817Z,66.70
2019-02-15T18:01:07.287Z,67.20
2019-02-15T18:03:37.629Z,67.90
2019-02-15T18:06:08.764Z,68.60
2019-02-15T18:08:41.696Z,68.80
2019-02-15T18:11:12.223Z,69.30
2019-02-15T18:13:42.579Z,69.90
2019-02-15T18:16:13.138Z,70.00
2019-02-15T18:18:43.373Z,70.50
2019-02-15T18:21:13.557Z,70.30
2019-02-15T18:23:43.853Z,70.30
2019-02-15T18:26:14.029Z,71.00
2019-02-15T18:28:44.210Z,71.60
2019-02-15T18:31:16.335Z,71.90
2019-02-15T18:33:46.169Z,72.30
2019-02-15T18:36:17.499Z,72.60
2019-02-15T18:38:47.701Z,73.30
2019-02-15T18:41:17.884Z,73.80
2019-02-15T18:43:48.065Z,73.90
2019-02-15T18:46:18.609Z,74.30
2019-02-15T18:48:49.139Z,75.10
2019-02-15T18:51:19.290Z,74.00
2019-02-15T18:53:49.483Z,75.50
2019-02-15T18:56:19.783Z,75.60
2019-02-15T18:58:50.475Z,75.50
2019-02-15T19:01:21.858Z,76.20
2019-02-15T19:03:52.713Z,76.10
2019-02-15T19:06:24.139Z,75.90
2019-02-15T19:08:54.572Z,72.00
2019-02-15T19:11:26.058Z,74.40
2019-02-15T19:13:57.714Z,75.30
2019-02-15T19:16:28.590Z,73.00
2019-02-15T19:18:59.776Z,74.90
2019-02-15T19:21:30.764Z,75.60
2019-02-15T19:24:01.201Z,76.20
2019-02-15T19:26:33.194Z,75.30
2019-02-15T19:29:03.890Z,71.20
2019-02-15T19:31:34.946Z,70.00
2019-02-15T19:34:05.471Z,72.70
2019-02-15T19:36:35.889Z,72.40
2019-02-15T19:39:06.825Z,72.60
2019-02-15T19:41:37.147Z,71.40
2019-02-15T19:44:07.310Z,72.80
2019-02-15T19:46:37.565Z,71.60
2019-02-15T19:49:08.024Z,71.10
2019-02-15T19:51:38.318Z,72.50
2019-02-15T19:54:14.348Z,73.70
2019-02-15T19:56:47.196Z,73.50
2019-02-15T19:59:17.741Z,73.80
2019-02-15T20:01:48.176Z,73.60
2019-02-15T20:04:18.332Z,71.80
2019-02-15T20:06:48.514Z,72.30
2019-02-15T20:09:18.739Z,71.40
2019-02-15T20:11:49.150Z,72.00
2019-02-15T20:14:19.416Z,69.90
2019-02-15T20:16:49.608Z,67.90
2019-02-15T20:19:19.825Z,63.90
2019-02-15T20:21:50.046Z,63.40
2019-02-15T20:24:20.212Z,65.50
2019-02-15T20:26:50.366Z,66.50
2019-02-15T20:29:20.547Z,68.00
2019-02-15T20:31:51.497Z,68.10
2019-02-15T20:34:21.620Z,69.40
2019-02-15T20:36:51.821Z,70.80
2019-02-15T20:39:22.012Z,71.20
2019-02-15T20:41:52.237Z,71.60
2019-02-15T20:44:22.452Z,71.60
2019-02-15T20:46:52.617Z,72.90
2019-02-15T20:49:22.895Z,72.80
2019-02-15T20:51:53.078Z,72.90
2019-02-15T20:54:23.250Z,72.10
2019-02-15T20:56:53.449Z,72.20
2019-02-15T20:59:23.628Z,71.60
2019-02-15T21:01:53.895Z,71.20
2019-02-15T21:04:24.107Z,71.80
2019-02-15T21:06:54.264Z,73.70
2019-02-15T21:09:24.498Z,72.80
2019-02-15T21:11:54.759Z,72.30
2019-02-15T21:14:24.976Z,72.80
2019-02-15T21:16:55.273Z,74.00
2019-02-15T21:19:28.264Z,75.30
2019-02-15T21:21:58.453Z,75.10
2019-02-15T21:24:28.732Z,74.90
2019-02-15T21:26:59.212Z,74.50
2019-02-15T21:29:29.476Z,75.50
2019-02-15T21:31:59.681Z,74.40
2019-02-15T21:34:30.833Z,73.10
2019-02-15T21:37:01.121Z,72.60
2019-02-15T21:39:31.285Z,74.10
2019-02-15T21:42:02.489Z,75.30
2019-02-15T21:44:32.754Z,76.80
2019-02-15T21:47:02.933Z,76.60
2019-02-15T21:49:33.088Z,77.70
2019-02-15T21:52:03.501Z,75.60
2019-02-15T21:54:33.785Z,76.50
2019-02-15T21:57:03.965Z,75.50
2019-02-15T21:59:34.112Z,76.70
2019-02-15T22:02:04.382Z,76.60
2019-02-15T22:04:34.612Z,76.90
2019-02-15T22:07:04.908Z,77.10
2019-02-15T22:09:35.077Z,77.10
2019-02-15T22:12:05.231Z,77.80
2019-02-15T22:14:35.814Z,76.50
2019-02-15T22:17:06.092Z,75.00
2019-02-15T22:19:36.665Z,75.10
2019-02-15T22:22:07.511Z,76.60
2019-02-15T22:24:37.681Z,77.70
2019-02-15T22:27:07.935Z,75.90
2019-02-15T22:29:38.141Z,75.70
2019-02-15T22:32:08.327Z,75.00
2019-02-15T22:34:38.584Z,74.60
2019-02-15T22:37:08.846Z,76.10
2019-02-15T22:39:39.023Z,77.00
2019-02-15T22:42:09.276Z,77.40
2019-02-15T22:44:39.429Z,78.30
2019-02-15T22:47:09.614Z,80.00
2019-02-15T22:49:43.282Z,78.40
2019-02-15T22:52:12.044Z,79.10
2019-02-15T22:54:42.230Z,79.90
2019-02-15T22:57:12.497Z,79.80
2019-02-15T22:59:42.732Z,79.60
2019-02-15T23:02:13.073Z,80.00
2019-02-15T23:04:43.236Z,80.20
2019-02-15T23:07:13.409Z,81.30
2019-02-15T23:09:43.561Z,78.70
2019-02-15T23:12:13.741Z,81.10
2019-02-15T23:14:43.918Z,81.60
2019-02-15T23:17:14.161Z,79.50
2019-02-15T23:19:44.330Z,80.40
2019-02-15T23:22:14.635Z,80.40
2019-02-15T23:24:44.789Z,82.10
2019-02-15T23:27:15.207Z,80.90
2019-02-15T23:29:45.467Z,82.00
2019-02-15T23:32:16.946Z,83.10
2019-02-15T23:34:47.281Z,79.50
2019-02-15T23:37:17.652Z,81.50
2019-02-15T23:39:47.885Z,80.30
2019-02-15T23:42:18.150Z,82.10
2019-02-15T23:44:48.364Z,81.90
2019-02-15T23:47:18.657Z,79.30
2019-02-15T23:49:50.967Z,81.70
2019-02-15T23:52:21.209Z,82.60
2019-02-15T23:54:51.359Z,81.70
2019-02-15T23:57:21.762Z,82.10
2019-02-15T23:59:52.484Z,77.70
